createdAt,value
2023-04-05T00:00:41.985Z,3.83
2023-04-05T00:03:28.944Z,2.63
2023-04-05T00:06:16.655Z,2.00
2023-04-05T00:09:03.757Z,2.37
2023-04-05T00:11:49.094Z,2.43
2023-04-05T00:14:34.479Z,1.67
2023-04-05T00:17:19.611Z,2.27
2023-04-05T00:20:08.100Z,2.30
2023-04-05T00:22:53.812Z,2.70
2023-04-05T00:25:39.096Z,2.60
2023-04-05T00:28:24.560Z,3.87
2023-04-05T00:31:09.968Z,2.13
2023-04-05T00:33:55.316Z,2.40
2023-04-05T00:36:40.580Z,2.90
2023-04-05T00:39:25.930Z,2.23
2023-04-05T00:42:11.759Z,2.13
2023-04-05T00:44:57.432Z,2.20
2023-04-05T00:47:43.625Z,2.43
2023-04-05T00:50:30.930Z,3.10
2023-04-05T00:53:19.046Z,1.83
2023-04-05T00:56:04.775Z,2.83
2023-04-05T00:58:52.230Z,3.27
2023-04-05T01:01:40.580Z,1.90
2023-04-05T01:04:28.178Z,1.97
2023-04-05T01:07:28.968Z,2.57
2023-04-05T01:10:17.414Z,1.53
2023-04-05T01:13:03.845Z,2.27
2023-04-05T01:15:49.565Z,2.60
2023-04-05T01:18:36.496Z,4.10
2023-04-05T01:21:40.043Z,2.47
2023-04-05T01:27:58.255Z,2.93
2023-04-05T01:30:51.294Z,1.90
2023-04-05T01:34:02.276Z,1.80
2023-04-05T01:36:54.764Z,2.03
2023-04-05T01:39:41.242Z,2.13
2023-04-05T01:42:27.240Z,2.53
2023-04-05T01:45:12.604Z,1.80
2023-04-05T01:47:58.023Z,1.77
2023-04-05T01:50:43.614Z,1.90
2023-04-05T01:53:29.172Z,2.03
2023-04-05T01:56:14.468Z,2.00
2023-04-05T01:58:59.719Z,2.70
2023-04-05T02:01:44.963Z,3.20
2023-04-05T02:04:30.395Z,1.50
2023-04-05T02:07:15.742Z,2.23
2023-04-05T02:10:01.451Z,3.00
2023-04-05T02:12:46.637Z,2.07
2023-04-05T02:15:33.233Z,2.07
2023-04-05T02:18:22.431Z,2.53
2023-04-05T02:21:10.722Z,2.33
2023-04-05T02:23:56.168Z,1.73
2023-04-05T02:26:41.878Z,1.77
2023-04-05T02:29:27.079Z,1.73
2023-04-05T02:32:12.346Z,1.97
2023-04-05T02:34:58.876Z,1.53
2023-04-05T02:37:44.535Z,2.27
2023-04-05T02:40:29.810Z,1.33
2023-04-05T02:43:15.369Z,1.53
2023-04-05T02:46:00.818Z,6.63
2023-04-05T02:48:46.543Z,11.83
2023-04-05T02:51:34.575Z,10.30
2023-04-05T02:54:23.794Z,10.17
2023-04-05T02:57:16.307Z,11.43
2023-04-05T03:00:13.217Z,13.90
2023-04-05T03:02:59.382Z,12.60
2023-04-05T03:05:47.207Z,12.97
2023-04-05T03:08:33.620Z,14.73
2023-04-05T03:11:21.734Z,12.60
2023-04-05T03:14:12.168Z,11.70
2023-04-05T03:17:03.373Z,9.00
2023-04-05T03:19:54.688Z,11.50
2023-04-05T03:22:43.570Z,8.17
2023-04-05T03:25:30.415Z,10.60
2023-04-05T03:28:18.346Z,12.97
2023-04-05T03:31:08.302Z,9.03
2023-04-05T03:33:53.595Z,7.90
2023-04-05T03:36:42.302Z,9.17
2023-04-05T03:39:38.378Z,8.53
2023-04-05T03:42:24.411Z,10.80
2023-04-05T03:45:10.859Z,10.53
2023-04-05T03:47:57.089Z,9.50
2023-04-05T03:50:42.507Z,8.90
2023-04-05T03:53:29.607Z,7.97
2023-04-05T03:56:15.795Z,10.63
2023-04-05T03:59:04.842Z,6.03
2023-04-05T04:01:51.192Z,8.60
2023-04-05T04:04:38.603Z,7.57
2023-04-05T04:07:24.568Z,5.00
2023-04-05T04:10:12.310Z,7.60
2023-04-05T04:12:57.695Z,7.17
2023-04-05T04:15:47.187Z,8.33
2023-04-05T04:18:43.763Z,7.33
2023-04-05T04:21:51.669Z,8.27
2023-04-05T04:24:37.528Z,6.15
2023-04-05T04:27:50.398Z,4.50
2023-04-05T04:30:56.056Z,6.47
2023-04-05T04:34:02.357Z,5.13
2023-04-05T04:37:03.946Z,7.10
2023-04-05T04:40:18.322Z,5.93
2023-04-05T04:43:42.840Z,6.10
2023-04-05T04:46:46.139Z,5.87
2023-04-05T04:49:34.818Z,4.40
2023-04-05T04:52:20.218Z,8.27
2023-04-05T04:55:09.205Z,4.30
2023-04-05T04:57:55.614Z,4.53
2023-04-05T05:00:45.145Z,6.40
2023-04-05T05:03:30.592Z,5.77
2023-04-05T05:06:22.171Z,5.37
2023-04-05T05:09:07.959Z,5.20
2023-04-05T05:12:02.616Z,12.23
2023-04-05T05:14:48.250Z,5.77
2023-04-05T05:17:34.875Z,5.17
2023-04-05T05:20:21.441Z,4.77
2023-04-05T05:23:06.988Z,5.57
2023-04-05T05:25:58.346Z,5.53
2023-04-05T05:28:44.119Z,7.37
2023-04-05T05:31:29.462Z,5.67
2023-04-05T05:34:14.797Z,6.90
2023-04-05T05:37:06.851Z,8.93
2023-04-05T05:39:54.529Z,6.80
2023-04-05T05:42:40.042Z,7.80
2023-04-05T05:45:25.702Z,6.37
2023-04-05T05:48:14.086Z,7.77
2023-04-05T05:51:06.550Z,6.63
2023-04-05T05:53:51.808Z,5.80
2023-04-05T05:56:37.169Z,6.77
2023-04-05T05:59:22.692Z,6.23
2023-04-05T06:02:08.220Z,7.40
2023-04-05T06:04:55.074Z,7.00
2023-04-05T06:07:40.871Z,5.90
2023-04-05T06:10:26.479Z,6.57
2023-04-05T06:13:12.155Z,8.33
2023-04-05T06:15:57.378Z,6.90
2023-04-05T06:18:43.914Z,8.00
2023-04-05T06:21:29.322Z,6.30
2023-04-05T06:24:14.781Z,8.03
2023-04-05T06:27:00.077Z,6.43
2023-04-05T06:29:45.485Z,7.57
2023-04-05T06:32:30.852Z,7.37
2023-04-05T06:35:17.035Z,6.83
2023-04-05T06:38:02.359Z,6.77
2023-04-05T06:40:48.169Z,7.07
2023-04-05T06:43:33.528Z,7.40
2023-04-05T06:46:19.025Z,8.63
2023-04-05T06:49:04.686Z,6.97
2023-04-05T06:51:50.026Z,6.67
2023-04-05T06:54:39.005Z,6.47
2023-04-05T06:57:24.466Z,7.13
2023-04-05T07:00:13.395Z,5.53
2023-04-05T07:02:58.680Z,8.67
2023-04-05T07:05:53.647Z,6.90
2023-04-05T07:08:39.037Z,5.30
2023-04-05T07:11:24.260Z,6.70
2023-04-05T07:14:09.721Z,6.30
2023-04-05T07:16:54.954Z,6.27
2023-04-05T07:19:40.354Z,7.17
2023-04-05T07:22:25.925Z,5.77
2023-04-05T07:25:11.773Z,7.50
2023-04-05T07:27:57.299Z,6.20
2023-04-05T07:30:42.783Z,8.73
2023-04-05T07:33:28.441Z,6.03
2023-04-05T07:36:13.708Z,7.97
2023-04-05T07:38:59.102Z,5.60
2023-04-05T07:41:46.523Z,5.97
2023-04-05T07:44:31.686Z,6.53
2023-04-05T07:47:17.169Z,6.30
2023-04-05T07:50:03.592Z,9.50
2023-04-05T07:52:52.449Z,5.47
2023-04-05T07:55:38.267Z,7.47
2023-04-05T07:58:23.788Z,5.73
2023-04-05T08:01:10.644Z,7.70
2023-04-05T08:03:59.271Z,5.57
2023-04-05T08:06:45.077Z,5.20
2023-04-05T08:09:30.578Z,4.23
2023-04-05T08:12:16.172Z,4.80
2023-04-05T08:15:01.668Z,7.63
2023-04-05T08:17:47.141Z,5.53
2023-04-05T08:20:32.633Z,6.13
2023-04-05T08:23:18.172Z,7.93
2023-04-05T08:26:04.007Z,5.10
2023-04-05T08:28:49.358Z,5.80
2023-04-05T08:31:34.562Z,4.60
2023-04-05T08:34:21.813Z,7.00
2023-04-05T08:37:07.622Z,6.63
2023-04-05T08:39:52.823Z,4.97
2023-04-05T08:42:45.945Z,5.43
2023-04-05T08:45:34.265Z,3.90
2023-04-05T08:48:20.671Z,5.30
2023-04-05T08:51:06.174Z,6.03
2023-04-05T08:53:53.065Z,4.83
2023-04-05T08:56:38.931Z,4.77
2023-04-05T08:59:24.698Z,5.67
2023-04-05T09:02:19.334Z,4.80
2023-04-05T09:05:09.319Z,4.67
2023-04-05T09:07:58.461Z,6.87
2023-04-05T09:10:44.680Z,4.10
2023-04-05T09:13:31.629Z,4.27
2023-04-05T09:16:17.803Z,4.17
2023-04-05T09:19:03.114Z,4.93
2023-04-05T09:22:01.085Z,3.60
2023-04-05T09:24:47.120Z,3.80
2023-04-05T09:27:36.126Z,3.97
2023-04-05T09:30:22.753Z,4.23
2023-04-05T09:33:10.565Z,3.97
2023-04-05T09:35:56.301Z,4.67
2023-04-05T09:38:45.919Z,3.80
2023-04-05T09:41:31.966Z,4.63
2023-04-05T09:44:17.523Z,3.80
2023-04-05T09:47:16.191Z,3.83
2023-04-05T09:50:06.222Z,3.30
2023-04-05T09:52:52.579Z,2.80
2023-04-05T09:55:38.136Z,4.83
2023-04-05T09:58:23.862Z,4.50
2023-04-05T10:01:16.774Z,4.00
2023-04-05T10:04:03.227Z,4.10
2023-04-05T10:06:49.050Z,3.27
2023-04-05T10:09:35.567Z,3.20
2023-04-05T10:12:28.641Z,4.53
2023-04-05T10:15:14.412Z,3.60
2023-04-05T10:18:13.483Z,3.57
2023-04-05T10:21:01.287Z,4.87
2023-04-05T10:23:53.106Z,3.17
2023-04-05T10:27:07.417Z,4.77
2023-04-05T10:30:05.264Z,4.53
2023-04-05T10:33:12.352Z,3.13
2023-04-05T10:36:06.835Z,4.53
2023-04-05T10:39:05.301Z,3.90
2023-04-05T10:42:00.264Z,3.47
2023-04-05T10:44:51.694Z,3.87
2023-04-05T10:47:45.156Z,3.03
2023-04-05T10:50:32.549Z,3.70
2023-04-05T10:53:20.948Z,3.33
2023-04-05T10:56:07.170Z,4.27
2023-04-05T10:58:54.114Z,3.70
2023-04-05T11:01:41.096Z,4.80
2023-04-05T11:04:26.569Z,4.30
2023-04-05T11:07:16.684Z,4.80
2023-04-05T11:10:05.120Z,4.90
2023-04-05T11:12:53.391Z,5.10
2023-04-05T11:15:39.939Z,3.30
2023-04-05T11:18:25.938Z,4.47
2023-04-05T11:21:11.177Z,4.63
2023-04-05T11:24:12.028Z,4.10
2023-04-05T11:26:57.924Z,4.43
2023-04-05T11:29:49.782Z,6.20
2023-04-05T11:32:39.682Z,4.50
2023-04-05T11:35:25.151Z,3.33
2023-04-05T11:38:10.530Z,5.97
2023-04-05T11:41:17.778Z,4.80
2023-04-05T11:44:05.843Z,4.83
2023-04-05T11:46:54.199Z,4.10
2023-04-05T11:49:40.778Z,4.47
2023-04-05T11:52:26.103Z,4.37
2023-04-05T11:55:11.927Z,5.57
2023-04-05T11:57:57.312Z,5.03
2023-04-05T12:00:43.424Z,4.60
2023-04-05T12:03:30.017Z,3.67
2023-04-05T12:06:15.469Z,5.47
2023-04-05T12:09:00.821Z,4.43
2023-04-05T12:11:46.266Z,3.87
2023-04-05T12:14:32.694Z,4.07
2023-04-05T12:17:17.924Z,5.03
2023-04-05T12:20:04.069Z,5.03
2023-04-05T12:22:51.882Z,5.00
2023-04-05T12:25:39.073Z,5.60
2023-04-05T12:28:26.393Z,4.53
2023-04-05T12:31:12.053Z,4.97
2023-04-05T12:33:59.508Z,3.97
2023-04-05T12:36:46.671Z,4.67
2023-04-05T12:39:33.239Z,6.27
2023-04-05T12:42:18.535Z,5.33
2023-04-05T12:45:12.706Z,4.90
2023-04-05T12:48:00.051Z,6.33
2023-04-05T12:50:52.054Z,4.17
2023-04-05T12:53:46.187Z,5.67
2023-04-05T12:56:32.556Z,4.50
2023-04-05T12:59:18.082Z,4.60
2023-04-05T13:02:03.458Z,3.47
2023-04-05T13:04:48.560Z,4.47
2023-04-05T13:07:36.383Z,4.53
2023-04-05T13:10:34.017Z,7.10
2023-04-05T13:13:23.992Z,4.80
2023-04-05T13:16:10.437Z,5.07
2023-04-05T13:18:57.196Z,3.63
2023-04-05T13:21:43.821Z,4.00
2023-04-05T13:24:29.732Z,3.47
2023-04-05T13:27:16.879Z,4.23
2023-04-05T13:30:04.981Z,3.97
2023-04-05T13:32:50.783Z,7.10
2023-04-05T13:35:36.456Z,6.10
2023-04-05T13:38:21.877Z,4.73
2023-04-05T13:41:07.337Z,4.30
2023-04-05T13:43:52.875Z,5.87
2023-04-05T13:46:38.506Z,3.80
2023-04-05T13:49:24.035Z,3.47
2023-04-05T13:52:09.723Z,4.60
2023-04-05T13:55:01.805Z,3.87
2023-04-05T13:57:49.693Z,4.20
2023-04-05T14:00:34.981Z,4.10
2023-04-05T14:03:20.211Z,3.60
2023-04-05T14:06:05.732Z,4.10
2023-04-05T14:08:55.628Z,4.30
2023-04-05T14:11:42.247Z,4.13
2023-04-05T14:14:29.380Z,4.97
2023-04-05T14:17:15.723Z,7.10
2023-04-05T14:20:01.715Z,6.83
2023-04-05T14:22:48.010Z,5.57
2023-04-05T14:25:33.294Z,5.07
2023-04-05T14:28:18.599Z,5.00
2023-04-05T14:31:04.365Z,6.13
2023-04-05T14:33:49.824Z,5.07
2023-04-05T14:36:36.465Z,5.07
2023-04-05T14:39:22.395Z,5.73
2023-04-05T14:42:07.802Z,4.23
2023-04-05T14:44:53.268Z,4.43
2023-04-05T14:47:38.575Z,7.33
2023-04-05T14:50:24.585Z,3.93
2023-04-05T14:53:10.614Z,7.97
2023-04-05T14:55:56.245Z,5.83
2023-04-05T14:58:41.991Z,4.57
2023-04-05T15:01:28.296Z,10.67
2023-04-05T15:04:14.337Z,8.23
2023-04-05T15:07:00.125Z,6.50
2023-04-05T15:09:45.839Z,6.60
2023-04-05T15:12:34.689Z,6.97
2023-04-05T15:15:20.797Z,7.07
2023-04-05T15:18:08.203Z,8.00
2023-04-05T15:20:53.816Z,8.13
2023-04-05T15:23:39.470Z,9.50
2023-04-05T15:26:25.434Z,12.03
2023-04-05T15:29:11.139Z,15.57
2023-04-05T15:31:57.903Z,13.67
2023-04-05T15:34:43.308Z,16.73
2023-04-05T15:37:28.858Z,18.63
2023-04-05T15:40:14.309Z,12.47
2023-04-05T15:42:59.944Z,8.57
2023-04-05T15:45:45.363Z,12.83
2023-04-05T15:48:31.100Z,11.93
2023-04-05T15:51:17.004Z,9.47
2023-04-05T15:54:03.311Z,14.87
2023-04-05T15:56:49.193Z,9.50
2023-04-05T15:59:34.564Z,11.57
2023-04-05T16:02:20.480Z,10.03
2023-04-05T16:05:06.965Z,7.43
2023-04-05T16:07:52.757Z,11.13
2023-04-05T16:10:38.424Z,10.10
2023-04-05T16:13:24.316Z,9.70
2023-04-05T16:16:29.929Z,9.37
2023-04-05T16:19:20.361Z,9.13
2023-04-05T16:22:06.765Z,16.30
2023-04-05T16:24:52.162Z,11.37
2023-04-05T16:27:38.521Z,8.73
2023-04-05T16:30:24.156Z,8.93
2023-04-05T16:33:10.521Z,10.13
2023-04-05T16:35:56.335Z,7.30
2023-04-05T16:38:43.778Z,12.73
2023-04-05T16:41:30.625Z,9.43
2023-04-05T16:44:16.743Z,7.43
2023-04-05T16:47:02.828Z,5.93
2023-04-05T16:49:48.585Z,6.27
2023-04-05T16:52:34.010Z,6.93
2023-04-05T16:55:20.091Z,8.60
2023-04-05T16:58:06.110Z,5.90
2023-04-05T17:00:55.651Z,5.80
2023-04-05T17:03:42.336Z,6.27
2023-04-05T17:06:28.179Z,6.70
2023-04-05T17:09:13.651Z,6.37
2023-04-05T17:11:59.336Z,8.13
2023-04-05T17:14:44.839Z,8.17
2023-04-05T17:17:30.572Z,5.20
2023-04-05T17:20:16.200Z,7.27
2023-04-05T17:23:01.843Z,7.67
2023-04-05T17:25:47.462Z,5.63
2023-04-05T17:28:33.397Z,5.80
2023-04-05T17:31:19.398Z,4.97
2023-04-05T17:34:04.639Z,8.40
2023-04-05T17:36:49.940Z,7.60
2023-04-05T17:39:35.753Z,6.57
2023-04-05T17:42:21.645Z,6.60
2023-04-05T17:45:08.123Z,5.17
2023-04-05T17:47:54.212Z,4.10
2023-04-05T17:50:39.535Z,5.97
2023-04-05T17:53:25.762Z,4.87
2023-04-05T17:56:11.415Z,8.43
2023-04-05T17:58:59.397Z,6.23
2023-04-05T18:01:51.505Z,6.03
2023-04-05T18:04:40.394Z,4.90
2023-04-05T18:07:27.274Z,8.53
2023-04-05T18:10:13.115Z,7.13
2023-04-05T18:12:58.838Z,7.43
2023-04-05T18:15:44.132Z,7.73
2023-04-05T18:18:29.422Z,5.53
2023-04-05T18:21:14.951Z,8.00
2023-04-05T18:24:00.166Z,6.63
2023-04-05T18:26:45.826Z,6.63
2023-04-05T18:29:33.010Z,6.37
2023-04-05T18:32:18.591Z,6.80
2023-04-05T18:35:04.667Z,6.33
2023-04-05T18:37:50.158Z,5.30
2023-04-05T18:40:35.771Z,7.70
2023-04-05T18:43:20.991Z,6.13
2023-04-05T18:46:06.554Z,7.03
2023-04-05T18:48:55.090Z,7.27
2023-04-05T18:51:40.506Z,4.93
2023-04-05T18:54:26.157Z,4.40
2023-04-05T18:57:11.758Z,7.03
2023-04-05T18:59:57.100Z,5.33
2023-04-05T19:02:42.443Z,4.70
2023-04-05T19:05:27.762Z,5.83
2023-04-05T19:08:14.273Z,4.53
2023-04-05T19:10:59.777Z,9.20
2023-04-05T19:13:46.350Z,6.30
2023-04-05T19:16:32.107Z,6.00
2023-04-05T19:19:18.969Z,5.77
2023-04-05T19:22:04.496Z,5.37
2023-04-05T19:24:49.965Z,7.97
2023-04-05T19:27:35.385Z,8.20
2023-04-05T19:30:21.098Z,5.97
2023-04-05T19:33:06.470Z,4.87
2023-04-05T19:35:52.018Z,5.43
2023-04-05T19:38:39.578Z,6.77
2023-04-05T19:41:25.249Z,7.30
2023-04-05T19:44:12.138Z,7.73
2023-04-05T19:46:57.499Z,4.83
2023-04-05T19:49:42.925Z,4.33
2023-04-05T19:52:31.438Z,4.23
2023-04-05T19:55:34.500Z,6.07
2023-04-05T19:58:27.822Z,7.70
2023-04-05T20:04:20.187Z,5.77
2023-04-05T20:07:08.146Z,5.50
2023-04-05T20:09:54.499Z,6.07
2023-04-05T20:12:39.798Z,8.30
2023-04-05T20:15:38.513Z,6.87
2023-04-05T20:18:25.984Z,7.47
2023-04-05T20:21:12.076Z,4.93
2023-04-05T20:23:58.622Z,5.10
2023-04-05T20:26:44.113Z,6.97
2023-04-05T20:29:32.412Z,6.17
2023-04-05T20:32:18.627Z,5.33
2023-04-05T20:35:08.810Z,5.30
2023-04-05T20:37:54.054Z,5.27
2023-04-05T20:40:39.299Z,4.33
2023-04-05T20:43:24.634Z,5.87
2023-04-05T20:46:10.538Z,5.37
2023-04-05T20:48:57.391Z,5.10
2023-04-05T20:51:43.240Z,3.53
2023-04-05T20:54:29.149Z,4.43
2023-04-05T20:57:14.765Z,7.30
2023-04-05T21:00:02.283Z,5.27
2023-04-05T21:02:48.208Z,7.30
2023-04-05T21:05:33.412Z,5.90
2023-04-05T21:08:18.708Z,4.53
2023-04-05T21:11:04.695Z,6.33
2023-04-05T21:13:50.054Z,6.83
2023-04-05T21:16:35.643Z,4.17
2023-04-05T21:19:21.115Z,5.60
2023-04-05T21:22:06.376Z,5.97
2023-04-05T21:24:51.656Z,6.73
2023-04-05T21:27:36.904Z,4.37
2023-04-05T21:30:22.260Z,6.57
2023-04-05T21:33:07.781Z,4.10
2023-04-05T21:35:53.310Z,6.33
2023-04-05T21:38:38.789Z,5.00
2023-04-05T21:41:23.953Z,9.10
2023-04-05T21:44:09.281Z,3.83
2023-04-05T21:46:54.870Z,6.30
2023-04-05T21:49:41.868Z,5.63
2023-04-05T21:52:27.220Z,5.93
2023-04-05T21:55:12.867Z,4.27
2023-04-05T21:57:58.544Z,4.87
2023-04-05T22:00:43.978Z,4.43
2023-04-05T22:03:29.269Z,3.63
2023-04-05T22:06:14.633Z,4.17
2023-04-05T22:08:59.929Z,3.77
2023-04-05T22:11:46.044Z,3.90
2023-04-05T22:14:31.541Z,6.00
2023-04-05T22:17:18.342Z,3.83
2023-04-05T22:20:04.091Z,4.33
2023-04-05T22:22:49.694Z,4.80
2023-04-05T22:25:34.949Z,3.80
2023-04-05T22:28:21.661Z,4.67
2023-04-05T22:31:07.165Z,5.33
2023-04-05T22:33:52.577Z,4.17
2023-04-05T22:36:37.719Z,4.47
2023-04-05T22:39:23.127Z,6.30
2023-04-05T22:42:08.431Z,4.23
2023-04-05T22:44:53.754Z,4.13
2023-04-05T22:47:39.210Z,3.90
2023-04-05T22:50:24.509Z,3.83
2023-04-05T22:53:10.017Z,4.10
2023-04-05T22:55:55.486Z,3.40
2023-04-05T22:58:41.013Z,3.80
2023-04-05T23:01:26.614Z,3.83
2023-04-05T23:04:12.053Z,4.33
2023-04-05T23:06:57.423Z,3.63
2023-04-05T23:09:42.672Z,3.13
2023-04-05T23:12:28.077Z,3.50
2023-04-05T23:15:14.176Z,3.30
2023-04-05T23:17:59.762Z,2.73
2023-04-05T23:20:45.382Z,3.73
2023-04-05T23:23:31.044Z,4.93
2023-04-05T23:26:16.639Z,4.03
2023-04-05T23:29:02.279Z,3.73
2023-04-05T23:31:48.365Z,4.27
2023-04-05T23:34:33.727Z,3.13
2023-04-05T23:37:19.097Z,3.87
2023-04-05T23:40:05.016Z,4.50
2023-04-05T23:42:51.018Z,3.13
2023-04-05T23:45:36.487Z,3.90
2023-04-05T23:48:21.812Z,3.10
2023-04-05T23:51:07.103Z,3.77
2023-04-05T23:53:52.750Z,3.87
2023-04-05T23:56:38.379Z,2.90
2023-04-05T23:59:23.645Z,3.30
